Аэропорт: Витебск Восточный. Витебск

ICAO: UMII

METAR:
2018/09/23 11:00
UMII 231100Z 23008G12MPS 9999 BKN034CB 14/06 Q1009 TEMPO 2000 SHRA BKN005
METAR:
2018/01/28 15:24
TAF TAF UMII 281405Z 2815/2924 19004G09MPS 2000 SN BR OVC005 
      TEMPO 2815/2824 0500 FZDZ FZFG VV002